createdAt,value
2017-09-18T00:00:57.981Z,10.90
2017-09-18T00:03:25.561Z,15.23
2017-09-18T00:05:53.313Z,13.17
2017-09-18T00:08:20.913Z,13.93
2017-09-18T00:10:48.459Z,13.13
2017-09-18T00:13:16.054Z,19.07
2017-09-18T00:15:43.647Z,13.57
2017-09-18T00:18:11.215Z,11.50
2017-09-18T00:20:38.990Z,17.43
2017-09-18T00:23:06.611Z,12.87
2017-09-18T00:25:34.122Z,20.87
2017-09-18T00:28:01.931Z,17.13
2017-09-18T00:30:29.517Z,13.77
2017-09-18T00:32:57.067Z,14.00
2017-09-18T00:35:24.650Z,15.03
2017-09-18T00:37:52.278Z,11.17
2017-09-18T00:40:19.819Z,10.83
2017-09-18T00:42:47.361Z,11.10
2017-09-18T00:45:14.955Z,8.43
2017-09-18T00:47:42.479Z,8.93
2017-09-18T00:50:10.055Z,13.80
2017-09-18T00:52:37.701Z,12.20
2017-09-18T00:55:05.309Z,12.07
2017-09-18T00:57:33.138Z,12.73
2017-09-18T01:00:00.793Z,12.90
2017-09-18T01:02:28.414Z,13.17
2017-09-18T01:04:55.962Z,13.50
2017-09-18T01:07:23.556Z,10.67
2017-09-18T01:09:51.181Z,12.53
2017-09-18T01:12:18.975Z,13.07
2017-09-18T01:14:46.617Z,11.67
2017-09-18T01:17:14.211Z,11.93
2017-09-18T01:19:41.762Z,9.67
2017-09-18T01:22:09.548Z,10.27
2017-09-18T01:24:37.150Z,15.27
2017-09-18T01:27:04.911Z,11.93
2017-09-18T01:29:32.706Z,9.27
2017-09-18T01:32:00.294Z,10.87
2017-09-18T01:34:27.865Z,7.70
2017-09-18T01:36:55.413Z,9.70
2017-09-18T01:39:23.049Z,13.03
2017-09-18T01:41:50.586Z,10.13
2017-09-18T01:44:18.187Z,12.13
2017-09-18T01:46:45.812Z,9.43
2017-09-18T01:49:13.563Z,8.47
2017-09-18T01:51:41.139Z,11.40
2017-09-18T01:54:08.763Z,10.23
2017-09-18T01:56:36.556Z,14.00
2017-09-18T01:59:04.182Z,9.83
2017-09-18T02:01:31.840Z,10.60
2017-09-18T02:03:59.598Z,9.40
2017-09-18T02:06:27.197Z,9.63
2017-09-18T02:08:54.818Z,16.40
2017-09-18T02:11:24.192Z,5.47
2017-09-18T02:13:51.749Z,7.53
2017-09-18T02:16:20.044Z,9.07
2017-09-18T02:18:47.909Z,7.17
2017-09-18T02:21:15.731Z,5.97
2017-09-18T02:23:43.362Z,7.60
2017-09-18T02:26:10.934Z,8.03
2017-09-18T02:28:38.502Z,9.00
2017-09-18T02:31:06.419Z,8.00
2017-09-18T02:33:33.992Z,8.50
2017-09-18T02:36:01.613Z,10.30
2017-09-18T02:38:29.238Z,10.00
2017-09-18T02:40:56.769Z,5.67
2017-09-18T02:43:24.566Z,12.70
2017-09-18T02:45:52.339Z,11.53
2017-09-18T02:48:20.114Z,7.67
2017-09-18T02:50:47.908Z,10.37
2017-09-18T02:53:15.536Z,8.30
2017-09-18T02:55:43.079Z,8.97
2017-09-18T02:58:10.651Z,11.60
2017-09-18T03:00:38.224Z,6.77
2017-09-18T03:03:05.850Z,8.63
2017-09-18T03:05:33.385Z,6.90
2017-09-18T03:08:01.029Z,10.90
2017-09-18T03:10:28.656Z,5.50
2017-09-18T03:12:56.207Z,6.67
2017-09-18T03:15:23.794Z,7.90
2017-09-18T03:17:51.340Z,7.70
2017-09-18T03:20:18.873Z,12.60
2017-09-18T03:22:46.480Z,13.17
2017-09-18T03:25:14.040Z,8.17
2017-09-18T03:27:41.608Z,17.43
2017-09-18T03:30:10.615Z,10.20
2017-09-18T03:32:38.213Z,8.73
2017-09-18T03:35:06.067Z,12.93
2017-09-18T03:37:33.870Z,21.43
2017-09-18T03:40:01.457Z,11.50
2017-09-18T03:42:29.206Z,9.93
2017-09-18T03:44:56.834Z,10.67
2017-09-18T03:47:24.396Z,11.27
2017-09-18T03:49:51.955Z,9.80
2017-09-18T03:52:19.585Z,13.07
2017-09-18T03:54:47.183Z,12.73
2017-09-18T03:57:14.707Z,12.57
2017-09-18T03:59:42.383Z,10.87
2017-09-18T04:02:10.738Z,8.67
2017-09-18T04:04:38.553Z,18.43
2017-09-18T04:07:06.154Z,10.50
2017-09-18T04:09:33.749Z,13.40
2017-09-18T04:12:01.969Z,13.43
2017-09-18T04:14:29.525Z,10.43
2017-09-18T04:16:57.100Z,6.50
2017-09-18T04:19:25.618Z,13.13
2017-09-18T04:21:53.232Z,16.80
2017-09-18T04:24:21.038Z,11.53
2017-09-18T04:26:48.586Z,14.17
2017-09-18T04:29:16.098Z,7.93
2017-09-18T04:31:43.862Z,6.70
2017-09-18T04:34:11.461Z,14.07
2017-09-18T04:36:39.010Z,10.30
2017-09-18T04:39:06.603Z,11.57
2017-09-18T04:41:34.138Z,13.40
2017-09-18T04:44:01.666Z,13.00
2017-09-18T04:46:29.293Z,10.43
2017-09-18T04:48:56.835Z,13.23
2017-09-18T04:51:24.448Z,13.63
2017-09-18T04:53:52.019Z,10.73
2017-09-18T04:56:19.617Z,11.00
2017-09-18T04:58:47.206Z,17.93
2017-09-18T05:01:14.815Z,9.33
2017-09-18T05:03:42.352Z,12.73
2017-09-18T05:06:10.260Z,18.13
2017-09-18T05:08:37.793Z,8.60
2017-09-18T05:11:05.963Z,12.67
2017-09-18T05:13:33.492Z,13.10
2017-09-18T05:16:01.283Z,8.77
2017-09-18T05:18:28.872Z,14.23
2017-09-18T05:20:56.397Z,17.47
2017-09-18T05:23:23.990Z,18.47
2017-09-18T05:25:51.520Z,12.50
2017-09-18T05:28:19.065Z,7.47
2017-09-18T05:30:46.642Z,9.23
2017-09-18T05:33:14.168Z,11.23
2017-09-18T05:35:41.742Z,9.70
2017-09-18T05:38:09.300Z,7.20
2017-09-18T05:40:36.807Z,11.20
2017-09-18T05:43:04.697Z,5.40
2017-09-18T05:45:32.323Z,13.60
2017-09-18T05:47:59.847Z,9.37
2017-09-18T05:50:27.373Z,11.83
2017-09-18T05:52:54.954Z,8.53
2017-09-18T05:55:22.537Z,9.00
2017-09-18T05:57:50.104Z,11.80
2017-09-18T06:00:17.683Z,6.13
2017-09-18T06:02:45.199Z,7.97
2017-09-18T06:05:12.702Z,5.67
2017-09-18T06:07:40.486Z,8.03
2017-09-18T06:10:08.022Z,9.70
2017-09-18T06:12:35.770Z,8.93
2017-09-18T06:15:03.349Z,6.70
2017-09-18T06:17:30.975Z,8.80
2017-09-18T06:19:58.484Z,9.90
2017-09-18T06:22:26.044Z,9.17
2017-09-18T06:24:54.660Z,8.90
2017-09-18T06:27:22.217Z,9.30
2017-09-18T06:29:49.767Z,9.60
2017-09-18T06:32:17.337Z,5.77
2017-09-18T06:34:44.883Z,8.57
2017-09-18T06:37:12.404Z,12.67
2017-09-18T06:39:40.035Z,16.67
2017-09-18T06:42:08.067Z,11.13
2017-09-18T06:44:35.589Z,14.33
2017-09-18T06:47:03.161Z,11.53
2017-09-18T06:49:30.718Z,5.90
2017-09-18T06:51:58.253Z,11.73
2017-09-18T06:54:25.899Z,8.73
2017-09-18T06:56:53.437Z,8.07
2017-09-18T06:59:20.953Z,7.87
2017-09-18T07:01:48.584Z,10.63
2017-09-18T07:04:16.152Z,5.13
2017-09-18T07:06:43.691Z,10.90
2017-09-18T07:09:11.251Z,7.30
2017-09-18T07:11:38.765Z,9.20
2017-09-18T07:14:06.357Z,13.13
2017-09-18T07:16:33.938Z,5.47
2017-09-18T07:19:01.704Z,9.13
2017-09-18T07:21:29.222Z,9.30
2017-09-18T07:23:56.834Z,13.43
2017-09-18T07:26:24.394Z,7.10
2017-09-18T07:28:51.967Z,7.33
2017-09-18T07:31:19.554Z,9.57
2017-09-18T07:33:47.161Z,5.83
2017-09-18T07:36:14.676Z,7.73
2017-09-18T07:38:42.237Z,7.83
2017-09-18T07:41:09.777Z,7.13
2017-09-18T07:43:37.597Z,7.03
2017-09-18T07:46:05.206Z,11.97
2017-09-18T07:48:32.832Z,6.70
2017-09-18T07:51:00.338Z,8.00
2017-09-18T07:53:28.106Z,6.87
2017-09-18T07:55:55.875Z,9.37
2017-09-18T07:58:23.618Z,6.43
2017-09-18T08:00:51.159Z,8.77
2017-09-18T08:03:19.159Z,4.73
2017-09-18T08:05:46.691Z,4.60
2017-09-18T08:08:14.339Z,5.57
2017-09-18T08:10:41.935Z,6.20
2017-09-18T08:13:09.800Z,7.47
2017-09-18T08:15:37.360Z,11.20
2017-09-18T08:18:04.927Z,48.70
2017-09-18T08:20:32.483Z,9.37
2017-09-18T08:23:00.103Z,13.93
2017-09-18T08:25:27.624Z,10.73
2017-09-18T08:27:55.202Z,10.83
2017-09-18T08:30:23.980Z,10.10
2017-09-18T08:32:51.546Z,7.67
2017-09-18T08:35:19.067Z,7.40
2017-09-18T08:37:46.644Z,6.77
2017-09-18T08:40:14.555Z,8.07
2017-09-18T08:42:42.330Z,12.40
2017-09-18T08:45:09.965Z,12.13
2017-09-18T08:47:37.594Z,5.73
2017-09-18T08:50:05.194Z,10.20
2017-09-18T08:52:32.766Z,6.80
2017-09-18T08:55:00.371Z,7.07
2017-09-18T08:57:28.256Z,7.90
2017-09-18T08:59:55.853Z,10.37
2017-09-18T09:02:23.442Z,7.40
2017-09-18T09:04:50.981Z,11.73
2017-09-18T09:07:18.551Z,9.77
2017-09-18T09:09:46.164Z,7.83
2017-09-18T09:12:13.769Z,7.07
2017-09-18T09:14:41.314Z,10.10
2017-09-18T09:17:08.879Z,7.43
2017-09-18T09:19:36.441Z,7.47
2017-09-18T09:22:03.947Z,12.30
2017-09-18T09:24:31.530Z,7.60
2017-09-18T09:26:59.344Z,7.23
2017-09-18T09:29:26.918Z,10.43
2017-09-18T09:31:54.501Z,8.30
2017-09-18T09:34:22.018Z,9.63
2017-09-18T09:36:49.542Z,8.63
2017-09-18T09:39:17.248Z,11.30
2017-09-18T09:41:45.074Z,5.80
2017-09-18T09:44:12.632Z,12.17
2017-09-18T09:46:40.242Z,12.53
2017-09-18T09:49:07.765Z,12.53
2017-09-18T09:51:35.296Z,10.20
2017-09-18T09:54:02.862Z,9.40
2017-09-18T09:56:30.410Z,7.93
2017-09-18T09:58:57.983Z,7.60
2017-09-18T10:01:25.599Z,11.93
2017-09-18T10:03:53.137Z,10.30
2017-09-18T10:06:20.723Z,10.70
2017-09-18T10:08:48.425Z,7.33
2017-09-18T10:11:15.954Z,8.33
2017-09-18T10:13:43.522Z,11.30
2017-09-18T10:16:11.089Z,8.33
2017-09-18T10:18:38.631Z,8.37
2017-09-18T10:21:06.135Z,9.83
2017-09-18T10:23:33.725Z,9.60
2017-09-18T10:26:01.233Z,10.07
2017-09-18T10:28:28.837Z,16.77
2017-09-18T10:30:56.420Z,7.37
2017-09-18T10:33:23.945Z,12.80
2017-09-18T10:35:51.804Z,8.93
2017-09-18T10:38:19.469Z,12.87
2017-09-18T10:40:47.259Z,11.60
2017-09-18T10:43:14.785Z,11.77
2017-09-18T10:45:42.362Z,6.60
2017-09-18T10:48:09.925Z,9.53
2017-09-18T10:50:37.490Z,14.10
2017-09-18T10:53:05.086Z,11.20
2017-09-18T10:55:32.826Z,8.27
2017-09-18T10:58:00.416Z,8.97
2017-09-18T11:00:28.098Z,7.93
2017-09-18T11:02:55.629Z,13.57
2017-09-18T11:05:23.397Z,8.47
2017-09-18T11:07:50.959Z,8.10
2017-09-18T11:10:18.470Z,12.30
2017-09-18T11:12:46.286Z,7.90
2017-09-18T11:15:13.873Z,7.30
2017-09-18T11:17:41.406Z,8.57
2017-09-18T11:20:08.920Z,8.17
2017-09-18T11:22:36.489Z,9.57
2017-09-18T11:25:04.072Z,7.87
2017-09-18T11:27:31.610Z,9.60
2017-09-18T11:29:59.175Z,7.17
2017-09-18T11:32:26.743Z,8.13
2017-09-18T11:34:54.265Z,11.40
2017-09-18T11:37:21.821Z,7.60
2017-09-18T11:39:49.399Z,8.17
2017-09-18T11:42:16.910Z,8.40
2017-09-18T11:44:44.471Z,9.30
2017-09-18T11:47:12.109Z,9.93
2017-09-18T11:49:39.637Z,9.73
2017-09-18T11:52:07.153Z,8.30
2017-09-18T11:54:34.712Z,6.40
2017-09-18T11:57:02.234Z,12.70
2017-09-18T11:59:30.293Z,11.47
2017-09-18T12:01:57.874Z,10.20
2017-09-18T12:04:25.397Z,8.47
2017-09-18T12:06:52.905Z,8.87
2017-09-18T12:09:20.516Z,8.13
2017-09-18T12:11:48.058Z,7.27
2017-09-18T12:14:15.879Z,13.93
2017-09-18T12:16:43.494Z,9.70
2017-09-18T12:19:11.298Z,10.83
2017-09-18T12:21:38.908Z,18.23
2017-09-18T12:24:06.493Z,10.03
2017-09-18T12:26:34.450Z,10.97
2017-09-18T12:29:02.726Z,8.50
2017-09-18T12:31:31.043Z,11.97
2017-09-18T12:33:58.670Z,11.47
2017-09-18T12:36:26.647Z,11.10
2017-09-18T12:38:54.257Z,9.70
2017-09-18T12:41:21.784Z,15.30
2017-09-18T12:43:50.001Z,10.27
2017-09-18T12:46:17.556Z,14.10
2017-09-18T12:48:45.148Z,6.83
2017-09-18T12:51:13.226Z,16.50
2017-09-18T12:53:40.788Z,9.80
2017-09-18T12:56:08.325Z,14.30
2017-09-18T12:58:35.904Z,10.70
2017-09-18T13:01:03.489Z,6.97
2017-09-18T13:03:31.104Z,10.20
2017-09-18T13:05:58.686Z,6.90
2017-09-18T13:08:26.273Z,7.47
2017-09-18T13:10:53.798Z,7.67
2017-09-18T13:13:21.297Z,8.27
2017-09-18T13:15:49.057Z,9.23
2017-09-18T13:18:16.626Z,6.73
2017-09-18T13:20:44.553Z,7.63
2017-09-18T13:23:12.167Z,12.13
2017-09-18T13:25:39.914Z,9.40
2017-09-18T13:28:07.500Z,10.10
2017-09-18T13:30:35.292Z,9.57
2017-09-18T13:33:02.817Z,16.23
2017-09-18T13:35:30.657Z,11.63
2017-09-18T13:37:58.203Z,10.90
2017-09-18T13:40:25.724Z,9.63
2017-09-18T13:42:53.341Z,9.93
2017-09-18T13:45:20.975Z,12.30
2017-09-18T13:47:48.719Z,9.70
2017-09-18T13:50:16.276Z,14.10
2017-09-18T13:52:43.835Z,10.60
2017-09-18T13:55:11.433Z,11.33
2017-09-18T13:57:38.941Z,10.80
2017-09-18T14:00:06.876Z,13.30
2017-09-18T14:02:34.412Z,6.13
2017-09-18T14:05:01.958Z,9.90
2017-09-18T14:07:29.568Z,14.33
2017-09-18T14:09:57.108Z,8.83
2017-09-18T14:12:24.627Z,6.00
2017-09-18T14:14:52.167Z,6.87
2017-09-18T14:17:19.740Z,5.40
2017-09-18T14:19:47.323Z,8.57
2017-09-18T14:22:14.876Z,13.03
2017-09-18T14:24:42.456Z,7.83
2017-09-18T14:27:10.038Z,6.33
2017-09-18T14:29:37.615Z,9.20
2017-09-18T14:32:05.985Z,8.00
2017-09-18T14:34:33.546Z,7.60
2017-09-18T14:37:01.072Z,9.13
2017-09-18T14:39:28.627Z,18.00
2017-09-18T14:41:56.402Z,8.70
2017-09-18T14:44:23.922Z,6.10
2017-09-18T14:46:51.497Z,8.03
2017-09-18T14:49:19.082Z,10.67
2017-09-18T14:51:46.689Z,5.00
2017-09-18T14:54:14.242Z,9.50
2017-09-18T14:56:41.785Z,11.87
2017-09-18T14:59:09.297Z,12.17
2017-09-18T15:01:36.872Z,15.33
2017-09-18T15:04:04.636Z,7.10
2017-09-18T15:06:32.190Z,6.10
2017-09-18T15:08:59.994Z,7.30
2017-09-18T15:11:27.523Z,5.93
2017-09-18T15:13:55.052Z,7.53
2017-09-18T15:16:22.624Z,14.50
2017-09-18T15:18:50.176Z,13.00
2017-09-18T15:21:17.717Z,12.17
2017-09-18T15:23:45.312Z,6.83
2017-09-18T15:26:12.842Z,9.87
2017-09-18T15:28:40.391Z,8.93
2017-09-18T15:31:07.981Z,12.30
2017-09-18T15:33:35.848Z,12.90
2017-09-18T15:36:04.023Z,11.40
2017-09-18T15:38:31.635Z,12.27
2017-09-18T15:40:59.846Z,12.10
2017-09-18T15:43:27.472Z,15.20
2017-09-18T15:45:55.089Z,10.90
2017-09-18T15:48:22.683Z,9.87
2017-09-18T15:50:50.429Z,8.20
2017-09-18T15:53:18.022Z,10.40
2017-09-18T15:55:45.603Z,14.93
2017-09-18T15:58:13.223Z,8.57
2017-09-18T16:00:40.813Z,9.43
2017-09-18T16:03:08.366Z,10.73
2017-09-18T16:05:35.915Z,11.60
2017-09-18T16:08:03.534Z,18.73
2017-09-18T16:10:31.082Z,10.43
2017-09-18T16:12:58.646Z,13.47
2017-09-18T16:15:26.223Z,15.67
2017-09-18T16:17:53.755Z,12.17
2017-09-18T16:20:21.290Z,11.47
2017-09-18T16:22:48.923Z,11.97
2017-09-18T16:25:16.848Z,10.07
2017-09-18T16:27:44.366Z,16.13
2017-09-18T16:30:12.848Z,10.73
2017-09-18T16:32:40.419Z,10.23
2017-09-18T16:35:08.179Z,14.17
2017-09-18T16:37:35.752Z,12.33
2017-09-18T16:40:03.546Z,10.40
2017-09-18T16:42:31.170Z,9.80
2017-09-18T16:44:58.770Z,21.30
2017-09-18T16:47:26.342Z,18.03
2017-09-18T16:49:53.924Z,10.87
2017-09-18T16:52:21.539Z,12.27
2017-09-18T16:54:49.122Z,8.23
2017-09-18T16:57:16.677Z,15.53
2017-09-18T16:59:44.330Z,12.60
2017-09-18T17:02:11.910Z,13.83
2017-09-18T17:04:39.473Z,19.33
2017-09-18T17:07:07.047Z,16.47
2017-09-18T17:09:34.671Z,18.73
2017-09-18T17:12:02.223Z,23.43
2017-09-18T17:14:29.796Z,28.90
2017-09-18T17:16:57.419Z,11.67
2017-09-18T17:19:25.011Z,11.77
2017-09-18T17:21:52.642Z,21.83
2017-09-18T17:24:20.346Z,17.80
2017-09-18T17:26:48.102Z,24.07
2017-09-18T17:29:15.734Z,24.40
2017-09-18T17:31:43.339Z,30.90
2017-09-18T17:34:11.127Z,18.37
2017-09-18T17:36:38.768Z,21.20
2017-09-18T17:39:14.524Z,28.20
2017-09-18T17:41:42.103Z,23.40
2017-09-18T17:44:09.720Z,22.03
2017-09-18T17:46:37.303Z,26.17
2017-09-18T17:49:05.152Z,18.10
2017-09-18T17:51:32.713Z,16.30
2017-09-18T17:54:00.304Z,18.07
2017-09-18T17:56:27.856Z,25.73
2017-09-18T17:58:55.532Z,19.50
2017-09-18T18:01:23.139Z,14.17
2017-09-18T18:03:51.071Z,19.13
2017-09-18T18:06:18.646Z,18.87
2017-09-18T18:08:46.275Z,15.50
2017-09-18T18:11:13.845Z,17.20
2017-09-18T18:13:41.471Z,21.30
2017-09-18T18:16:09.063Z,18.93
2017-09-18T18:18:36.623Z,19.47
2017-09-18T18:21:04.217Z,18.13
2017-09-18T18:23:31.803Z,23.33
2017-09-18T18:25:59.390Z,23.80
2017-09-18T18:28:26.989Z,21.97
2017-09-18T18:30:54.635Z,23.13
2017-09-18T18:33:22.799Z,27.87
2017-09-18T18:35:50.373Z,28.83
2017-09-18T18:38:17.991Z,20.13
2017-09-18T18:40:45.549Z,23.47
2017-09-18T18:43:13.999Z,24.60
2017-09-18T18:45:41.606Z,22.70
2017-09-18T18:48:09.457Z,26.70
2017-09-18T18:50:38.075Z,19.27
2017-09-18T18:53:06.497Z,16.30
2017-09-18T18:55:34.051Z,19.97
2017-09-18T18:58:01.704Z,19.47
2017-09-18T19:00:29.298Z,22.90
2017-09-18T19:02:56.899Z,18.40
2017-09-18T19:05:24.417Z,20.53
2017-09-18T19:07:51.974Z,21.37
2017-09-18T19:10:19.787Z,27.27
2017-09-18T19:12:47.348Z,17.10
2017-09-18T19:15:14.953Z,17.07
2017-09-18T19:17:42.893Z,26.23
2017-09-18T19:20:10.476Z,28.63
2017-09-18T19:22:39.046Z,22.23
2017-09-18T19:25:06.580Z,21.87
2017-09-18T19:27:34.349Z,23.60
2017-09-18T19:30:01.994Z,18.67
2017-09-18T19:32:29.616Z,22.23
2017-09-18T19:34:57.378Z,19.70
2017-09-18T19:37:24.963Z,18.33
2017-09-18T19:39:52.571Z,27.13
2017-09-18T19:42:20.097Z,20.83
2017-09-18T19:44:47.890Z,28.73
2017-09-18T19:47:15.600Z,27.53
2017-09-18T19:49:43.233Z,16.30
2017-09-18T19:52:10.851Z,26.07
2017-09-18T19:54:38.446Z,25.43
2017-09-18T19:57:05.996Z,23.60
2017-09-18T19:59:33.600Z,23.83
2017-09-18T20:02:01.185Z,20.00
2017-09-18T20:04:28.759Z,18.60
2017-09-18T20:06:56.311Z,27.20
2017-09-18T20:09:23.931Z,19.00
2017-09-18T20:11:51.526Z,27.53
2017-09-18T20:14:19.323Z,17.67
2017-09-18T20:16:46.902Z,21.83
2017-09-18T20:19:14.477Z,21.83
2017-09-18T20:21:42.049Z,21.03
2017-09-18T20:24:09.607Z,30.93
2017-09-18T20:26:38.144Z,21.90
2017-09-18T20:29:05.675Z,18.53
2017-09-18T20:31:33.300Z,21.10
2017-09-18T20:34:00.881Z,17.80
2017-09-18T20:36:28.698Z,22.53
2017-09-18T20:38:56.516Z,21.30
2017-09-18T20:41:24.177Z,22.93
2017-09-18T20:43:53.232Z,28.93
2017-09-18T20:46:20.867Z,23.47
2017-09-18T20:48:48.453Z,19.03
2017-09-18T20:51:16.030Z,27.93
2017-09-18T20:53:43.646Z,23.67
2017-09-18T20:56:11.302Z,35.47
2017-09-18T20:58:39.046Z,21.70
2017-09-18T21:01:06.642Z,19.70
2017-09-18T21:03:34.209Z,33.63
2017-09-18T21:06:01.811Z,29.23
2017-09-18T21:08:29.505Z,27.53
2017-09-18T21:10:57.061Z,36.60
2017-09-18T21:13:24.613Z,20.83
2017-09-18T21:15:52.201Z,20.37
2017-09-18T21:18:19.748Z,17.23
2017-09-18T21:20:47.307Z,17.87
2017-09-18T21:23:14.906Z,17.80
2017-09-18T21:25:42.482Z,15.90
2017-09-18T21:28:10.265Z,26.10
2017-09-18T21:30:37.972Z,21.50
2017-09-18T21:33:05.550Z,21.27
2017-09-18T21:35:33.154Z,25.70
2017-09-18T21:38:00.783Z,28.50
2017-09-18T21:40:28.307Z,22.07
2017-09-18T21:42:55.927Z,19.50
2017-09-18T21:45:23.537Z,22.13
2017-09-18T21:47:51.092Z,26.53
2017-09-18T21:50:18.855Z,20.40
2017-09-18T21:52:46.431Z,21.10
2017-09-18T21:55:13.980Z,19.70
2017-09-18T21:57:49.990Z,19.87
2017-09-18T22:00:17.607Z,22.87
2017-09-18T22:02:45.218Z,14.63
2017-09-18T22:05:15.340Z,17.80
2017-09-18T22:07:43.000Z,22.90
2017-09-18T22:10:10.611Z,23.43
2017-09-18T22:12:38.183Z,21.70
2017-09-18T22:15:06.725Z,17.43
2017-09-18T22:17:34.607Z,15.53
2017-09-18T22:23:23.071Z,15.70
2017-09-18T22:25:50.693Z,20.83
2017-09-18T22:28:18.388Z,13.30
2017-09-18T22:30:46.047Z,16.07
2017-09-18T22:33:13.636Z,20.00
2017-09-18T22:35:41.451Z,16.03
2017-09-18T22:38:09.078Z,16.37
2017-09-18T22:40:36.773Z,21.83
2017-09-18T22:43:04.795Z,24.10
2017-09-18T22:45:32.405Z,15.63
2017-09-18T22:47:59.960Z,16.10
2017-09-18T22:50:27.511Z,9.20
2017-09-18T22:52:55.161Z,15.47
2017-09-18T22:55:22.748Z,14.37
2017-09-18T22:57:50.274Z,14.53
2017-09-18T23:00:17.915Z,10.93
2017-09-18T23:02:45.759Z,13.23
2017-09-18T23:05:13.281Z,14.50
2017-09-18T23:07:40.872Z,15.73
2017-09-18T23:10:08.425Z,12.30
2017-09-18T23:12:36.910Z,14.03
2017-09-18T23:15:04.503Z,12.10
2017-09-18T23:17:32.039Z,12.83
2017-09-18T23:19:59.651Z,15.07
2017-09-18T23:22:27.221Z,13.53
2017-09-18T23:24:54.774Z,15.50
2017-09-18T23:27:22.342Z,12.07
2017-09-18T23:29:49.951Z,15.40
2017-09-18T23:32:17.521Z,14.77
2017-09-18T23:34:45.060Z,16.37
2017-09-18T23:37:13.156Z,12.60
2017-09-18T23:39:40.721Z,11.43
2017-09-18T23:42:08.286Z,14.43
2017-09-18T23:44:35.822Z,18.93
2017-09-18T23:47:03.634Z,18.40
2017-09-18T23:49:31.155Z,11.17
2017-09-18T23:51:58.688Z,19.70
2017-09-18T23:54:26.624Z,14.00
2017-09-18T23:56:54.995Z,20.77
2017-09-18T23:59:22.784Z,17.50
